sensor_id;sensor_type;location;lat;lon;timestamp;P1;durP1;ratioP1;P2;durP2;ratioP2
27794;SDS011;15176;50.844;4.412;2023-07-29T00:00:56;3.40;;;1.30;;
27794;SDS011;15176;50.844;4.412;2023-07-29T00:03:22;4.47;;;1.27;;
27794;SDS011;15176;50.844;4.412;2023-07-29T00:05:48;2.42;;;1.10;;
27794;SDS011;15176;50.844;4.412;2023-07-29T00:08:14;2.63;;;1.13;;
27794;SDS011;15176;50.844;4.412;2023-07-29T00:10:39;3.40;;;1.20;;
27794;SDS011;15176;50.844;4.412;2023-07-29T00:13:05;4.95;;;1.27;;
27794;SDS011;15176;50.844;4.412;2023-07-29T00:15:32;6.35;;;1.23;;
27794;SDS011;15176;50.844;4.412;2023-07-29T00:18:00;5.32;;;1.40;;
27794;SDS011;15176;50.844;4.412;2023-07-29T00:20:26;2.50;;;1.13;;
27794;SDS011;15176;50.844;4.412;2023-07-29T00:22:52;2.13;;;1.10;;
27794;SDS011;15176;50.844;4.412;2023-07-29T00:25:19;2.83;;;1.10;;
27794;SDS011;15176;50.844;4.412;2023-07-29T00:27:45;3.47;;;1.30;;
27794;SDS011;15176;50.844;4.412;2023-07-29T00:30:11;3.85;;;1.20;;
27794;SDS011;15176;50.844;4.412;2023-07-29T00:32:37;4.47;;;1.42;;
27794;SDS011;15176;50.844;4.412;2023-07-29T00:35:03;2.80;;;1.30;;
27794;SDS011;15176;50.844;4.412;2023-07-29T00:37:29;4.38;;;1.23;;
27794;SDS011;15176;50.844;4.412;2023-07-29T00:39:55;4.35;;;1.58;;
27794;SDS011;15176;50.844;4.412;2023-07-29T00:42:21;4.70;;;1.30;;
27794;SDS011;15176;50.844;4.412;2023-07-29T00:44:47;4.03;;;1.42;;
27794;SDS011;15176;50.844;4.412;2023-07-29T00:47:12;3.00;;;1.20;;
27794;SDS011;15176;50.844;4.412;2023-07-29T00:49:40;2.92;;;1.30;;
27794;SDS011;15176;50.844;4.412;2023-07-29T00:52:08;2.80;;;1.48;;
27794;SDS011;15176;50.844;4.412;2023-07-29T00:54:36;3.60;;;1.33;;
27794;SDS011;15176;50.844;4.412;2023-07-29T00:57:02;3.38;;;1.40;;
27794;SDS011;15176;50.844;4.412;2023-07-29T00:59:28;3.22;;;1.38;;
27794;SDS011;15176;50.844;4.412;2023-07-29T01:01:55;3.47;;;0.90;;
27794;SDS011;15176;50.844;4.412;2023-07-29T01:04:21;3.00;;;1.20;;
27794;SDS011;15176;50.844;4.412;2023-07-29T01:09:39;4.38;;;1.33;;
27794;SDS011;15176;50.844;4.412;2023-07-29T01:12:23;4.38;;;1.30;;
27794;SDS011;15176;50.844;4.412;2023-07-29T01:17:40;3.05;;;1.42;;
27794;SDS011;15176;50.844;4.412;2023-07-29T01:20:12;3.55;;;1.23;;
27794;SDS011;15176;50.844;4.412;2023-07-29T01:22:40;4.95;;;1.20;;
27794;SDS011;15176;50.844;4.412;2023-07-29T01:25:07;2.15;;;1.10;;
27794;SDS011;15176;50.844;4.412;2023-07-29T01:27:33;3.22;;;1.30;;
27794;SDS011;15176;50.844;4.412;2023-07-29T01:29:59;5.13;;;1.30;;
27794;SDS011;15176;50.844;4.412;2023-07-29T01:38:18;4.00;;;1.60;;
27794;SDS011;15176;50.844;4.412;2023-07-29T01:40:45;4.45;;;1.40;;
27794;SDS011;15176;50.844;4.412;2023-07-29T01:43:14;5.72;;;1.55;;
27794;SDS011;15176;50.844;4.412;2023-07-29T01:45:39;3.30;;;1.27;;
27794;SDS011;15176;50.844;4.412;2023-07-29T01:48:06;5.90;;;1.80;;
27794;SDS011;15176;50.844;4.412;2023-07-29T01:50:32;4.05;;;1.60;;
27794;SDS011;15176;50.844;4.412;2023-07-29T01:52:58;3.28;;;1.33;;
27794;SDS011;15176;50.844;4.412;2023-07-29T01:55:25;4.47;;;1.52;;
27794;SDS011;15176;50.844;4.412;2023-07-29T01:57:51;5.18;;;1.85;;
27794;SDS011;15176;50.844;4.412;2023-07-29T02:00:17;4.22;;;1.80;;
27794;SDS011;15176;50.844;4.412;2023-07-29T02:02:44;4.97;;;1.65;;
27794;SDS011;15176;50.844;4.412;2023-07-29T02:05:10;4.00;;;1.70;;
27794;SDS011;15176;50.844;4.412;2023-07-29T02:07:35;6.88;;;1.80;;
27794;SDS011;15176;50.844;4.412;2023-07-29T02:10:01;2.85;;;1.40;;
27794;SDS011;15176;50.844;4.412;2023-07-29T02:12:27;3.13;;;1.60;;
27794;SDS011;15176;50.844;4.412;2023-07-29T02:14:59;5.13;;;1.95;;
27794;SDS011;15176;50.844;4.412;2023-07-29T02:17:27;4.97;;;1.70;;
27794;SDS011;15176;50.844;4.412;2023-07-29T02:19:59;4.05;;;1.60;;
27794;SDS011;15176;50.844;4.412;2023-07-29T02:22:24;4.32;;;1.70;;
27794;SDS011;15176;50.844;4.412;2023-07-29T02:24:50;5.60;;;1.90;;
27794;SDS011;15176;50.844;4.412;2023-07-29T02:27:16;6.78;;;1.70;;
27794;SDS011;15176;50.844;4.412;2023-07-29T02:29:43;3.65;;;1.60;;
27794;SDS011;15176;50.844;4.412;2023-07-29T02:32:09;8.15;;;1.50;;
27794;SDS011;15176;50.844;4.412;2023-07-29T02:34:34;4.13;;;1.67;;
27794;SDS011;15176;50.844;4.412;2023-07-29T02:37:00;4.47;;;1.70;;
27794;SDS011;15176;50.844;4.412;2023-07-29T02:39:26;4.10;;;1.40;;
27794;SDS011;15176;50.844;4.412;2023-07-29T02:41:53;2.97;;;1.20;;
27794;SDS011;15176;50.844;4.412;2023-07-29T02:44:20;3.78;;;1.70;;
27794;SDS011;15176;50.844;4.412;2023-07-29T02:46:46;3.47;;;1.50;;
27794;SDS011;15176;50.844;4.412;2023-07-29T02:49:12;3.83;;;1.52;;
27794;SDS011;15176;50.844;4.412;2023-07-29T02:51:37;3.15;;;1.55;;
27794;SDS011;15176;50.844;4.412;2023-07-29T02:54:03;10.45;;;1.58;;
27794;SDS011;15176;50.844;4.412;2023-07-29T02:56:29;6.30;;;1.55;;
27794;SDS011;15176;50.844;4.412;2023-07-29T02:58:55;5.10;;;1.52;;
27794;SDS011;15176;50.844;4.412;2023-07-29T03:01:22;4.13;;;1.58;;
27794;SDS011;15176;50.844;4.412;2023-07-29T03:03:50;3.83;;;1.65;;
27794;SDS011;15176;50.844;4.412;2023-07-29T03:06:16;2.63;;;1.25;;
27794;SDS011;15176;50.844;4.412;2023-07-29T03:08:41;3.53;;;1.30;;
27794;SDS011;15176;50.844;4.412;2023-07-29T03:11:08;3.75;;;1.23;;
27794;SDS011;15176;50.844;4.412;2023-07-29T03:13:35;4.13;;;1.67;;
27794;SDS011;15176;50.844;4.412;2023-07-29T03:16:05;6.50;;;1.60;;
27794;SDS011;15176;50.844;4.412;2023-07-29T03:18:39;4.00;;;1.52;;
27794;SDS011;15176;50.844;4.412;2023-07-29T03:21:06;3.78;;;1.55;;
27794;SDS011;15176;50.844;4.412;2023-07-29T03:23:32;4.32;;;1.70;;
27794;SDS011;15176;50.844;4.412;2023-07-29T03:25:59;2.38;;;1.20;;
27794;SDS011;15176;50.844;4.412;2023-07-29T03:28:28;3.55;;;1.50;;
27794;SDS011;15176;50.844;4.412;2023-07-29T03:30:55;5.72;;;1.67;;
27794;SDS011;15176;50.844;4.412;2023-07-29T03:33:21;3.25;;;1.60;;
27794;SDS011;15176;50.844;4.412;2023-07-29T03:35:47;6.85;;;1.63;;
27794;SDS011;15176;50.844;4.412;2023-07-29T03:38:14;2.40;;;1.30;;
27794;SDS011;15176;50.844;4.412;2023-07-29T03:40:40;4.03;;;1.70;;
27794;SDS011;15176;50.844;4.412;2023-07-29T03:43:06;5.30;;;1.50;;
27794;SDS011;15176;50.844;4.412;2023-07-29T03:45:33;5.32;;;1.83;;
27794;SDS011;15176;50.844;4.412;2023-07-29T03:47:59;3.80;;;1.55;;
27794;SDS011;15176;50.844;4.412;2023-07-29T03:50:25;7.72;;;1.73;;
27794;SDS011;15176;50.844;4.412;2023-07-29T03:52:51;4.00;;;1.70;;
27794;SDS011;15176;50.844;4.412;2023-07-29T03:55:17;3.70;;;1.52;;
27794;SDS011;15176;50.844;4.412;2023-07-29T03:57:43;3.42;;;1.58;;
27794;SDS011;15176;50.844;4.412;2023-07-29T04:00:09;3.90;;;1.70;;
27794;SDS011;15176;50.844;4.412;2023-07-29T04:02:35;6.40;;;1.70;;
27794;SDS011;15176;50.844;4.412;2023-07-29T04:05:04;3.33;;;1.70;;
27794;SDS011;15176;50.844;4.412;2023-07-29T04:07:33;3.38;;;1.70;;
27794;SDS011;15176;50.844;4.412;2023-07-29T04:09:59;4.13;;;1.67;;
27794;SDS011;15176;50.844;4.412;2023-07-29T04:12:26;4.85;;;1.70;;
27794;SDS011;15176;50.844;4.412;2023-07-29T04:14:55;4.55;;;1.90;;
27794;SDS011;15176;50.844;4.412;2023-07-29T04:17:25;5.10;;;1.60;;
27794;SDS011;15176;50.844;4.412;2023-07-29T04:19:51;3.45;;;1.73;;
27794;SDS011;15176;50.844;4.412;2023-07-29T04:22:17;2.72;;;1.58;;
27794;SDS011;15176;50.844;4.412;2023-07-29T04:24:42;3.97;;;1.83;;
27794;SDS011;15176;50.844;4.412;2023-07-29T04:27:08;3.90;;;1.58;;
27794;SDS011;15176;50.844;4.412;2023-07-29T04:29:34;4.25;;;1.60;;
27794;SDS011;15176;50.844;4.412;2023-07-29T04:32:03;4.53;;;1.65;;
27794;SDS011;15176;50.844;4.412;2023-07-29T04:34:32;6.35;;;1.75;;
27794;SDS011;15176;50.844;4.412;2023-07-29T04:36:57;5.55;;;1.80;;
27794;SDS011;15176;50.844;4.412;2023-07-29T04:39:23;3.25;;;1.58;;
27794;SDS011;15176;50.844;4.412;2023-07-29T04:41:49;11.95;;;2.28;;
27794;SDS011;15176;50.844;4.412;2023-07-29T04:44:14;3.85;;;1.65;;
27794;SDS011;15176;50.844;4.412;2023-07-29T04:46:40;5.25;;;1.75;;
27794;SDS011;15176;50.844;4.412;2023-07-29T04:49:06;5.25;;;1.65;;
27794;SDS011;15176;50.844;4.412;2023-07-29T04:51:32;5.57;;;1.90;;
27794;SDS011;15176;50.844;4.412;2023-07-29T04:53:58;3.00;;;1.42;;
27794;SDS011;15176;50.844;4.412;2023-07-29T04:56:24;3.53;;;1.40;;
27794;SDS011;15176;50.844;4.412;2023-07-29T04:58:49;3.50;;;1.70;;
27794;SDS011;15176;50.844;4.412;2023-07-29T05:01:15;5.35;;;2.10;;
27794;SDS011;15176;50.844;4.412;2023-07-29T05:03:42;5.07;;;1.77;;
27794;SDS011;15176;50.844;4.412;2023-07-29T05:06:08;4.88;;;1.50;;
27794;SDS011;15176;50.844;4.412;2023-07-29T05:08:34;6.40;;;1.50;;
27794;SDS011;15176;50.844;4.412;2023-07-29T05:11:00;4.43;;;1.58;;
27794;SDS011;15176;50.844;4.412;2023-07-29T05:13:26;5.28;;;1.55;;
27794;SDS011;15176;50.844;4.412;2023-07-29T05:15:52;3.63;;;1.48;;
27794;SDS011;15176;50.844;4.412;2023-07-29T05:18:18;5.32;;;1.60;;
27794;SDS011;15176;50.844;4.412;2023-07-29T05:20:43;4.13;;;1.67;;
27794;SDS011;15176;50.844;4.412;2023-07-29T05:23:09;5.90;;;1.65;;
27794;SDS011;15176;50.844;4.412;2023-07-29T05:25:35;3.63;;;1.60;;
27794;SDS011;15176;50.844;4.412;2023-07-29T05:28:02;5.25;;;1.77;;
27794;SDS011;15176;50.844;4.412;2023-07-29T05:30:30;3.15;;;1.33;;
27794;SDS011;15176;50.844;4.412;2023-07-29T05:32:57;3.63;;;1.40;;
27794;SDS011;15176;50.844;4.412;2023-07-29T05:35:23;2.88;;;1.40;;
27794;SDS011;15176;50.844;4.412;2023-07-29T05:37:49;6.15;;;1.30;;
27794;SDS011;15176;50.844;4.412;2023-07-29T05:40:15;6.15;;;1.70;;
27794;SDS011;15176;50.844;4.412;2023-07-29T05:42:40;4.38;;;1.52;;
27794;SDS011;15176;50.844;4.412;2023-07-29T05:45:06;3.22;;;1.38;;
27794;SDS011;15176;50.844;4.412;2023-07-29T05:47:32;3.85;;;1.40;;
27794;SDS011;15176;50.844;4.412;2023-07-29T05:49:59;4.22;;;1.50;;
27794;SDS011;15176;50.844;4.412;2023-07-29T05:52:28;4.25;;;1.70;;
27794;SDS011;15176;50.844;4.412;2023-07-29T05:54:53;3.80;;;1.13;;
27794;SDS011;15176;50.844;4.412;2023-07-29T05:57:19;4.28;;;1.50;;
27794;SDS011;15176;50.844;4.412;2023-07-29T05:59:44;3.53;;;1.38;;
27794;SDS011;15176;50.844;4.412;2023-07-29T06:02:10;3.58;;;1.30;;
27794;SDS011;15176;50.844;4.412;2023-07-29T06:04:36;5.10;;;1.58;;
27794;SDS011;15176;50.844;4.412;2023-07-29T06:07:02;5.43;;;1.30;;
27794;SDS011;15176;50.844;4.412;2023-07-29T06:09:27;2.25;;;1.08;;
27794;SDS011;15176;50.844;4.412;2023-07-29T06:11:53;4.10;;;1.30;;
27794;SDS011;15176;50.844;4.412;2023-07-29T06:14:19;3.42;;;1.40;;
27794;SDS011;15176;50.844;4.412;2023-07-29T06:16:44;1.50;;;0.90;;
27794;SDS011;15176;50.844;4.412;2023-07-29T06:19:10;2.88;;;1.20;;
27794;SDS011;15176;50.844;4.412;2023-07-29T06:21:36;4.43;;;1.17;;
27794;SDS011;15176;50.844;4.412;2023-07-29T06:24:02;4.35;;;1.20;;
27794;SDS011;15176;50.844;4.412;2023-07-29T06:26:28;4.90;;;1.20;;
27794;SDS011;15176;50.844;4.412;2023-07-29T06:28:54;2.30;;;1.20;;
27794;SDS011;15176;50.844;4.412;2023-07-29T06:31:19;2.70;;;1.10;;
27794;SDS011;15176;50.844;4.412;2023-07-29T06:33:45;3.80;;;1.30;;
27794;SDS011;15176;50.844;4.412;2023-07-29T06:36:11;5.60;;;1.33;;
27794;SDS011;15176;50.844;4.412;2023-07-29T06:38:37;2.38;;;1.10;;
27794;SDS011;15176;50.844;4.412;2023-07-29T06:41:03;3.13;;;1.30;;
27794;SDS011;15176;50.844;4.412;2023-07-29T06:43:29;3.40;;;1.08;;
27794;SDS011;15176;50.844;4.412;2023-07-29T06:45:55;2.80;;;1.10;;
27794;SDS011;15176;50.844;4.412;2023-07-29T06:48:21;2.60;;;1.20;;
27794;SDS011;15176;50.844;4.412;2023-07-29T06:50:47;4.20;;;1.02;;
27794;SDS011;15176;50.844;4.412;2023-07-29T06:53:15;3.25;;;1.20;;
27794;SDS011;15176;50.844;4.412;2023-07-29T06:55:40;3.75;;;1.02;;
27794;SDS011;15176;50.844;4.412;2023-07-29T06:58:06;3.55;;;1.13;;
27794;SDS011;15176;50.844;4.412;2023-07-29T07:00:32;4.22;;;1.30;;
27794;SDS011;15176;50.844;4.412;2023-07-29T07:02:58;4.10;;;1.27;;
27794;SDS011;15176;50.844;4.412;2023-07-29T07:05:23;3.78;;;1.27;;
27794;SDS011;15176;50.844;4.412;2023-07-29T07:07:49;2.92;;;1.38;;
27794;SDS011;15176;50.844;4.412;2023-07-29T07:10:15;2.53;;;1.00;;
27794;SDS011;15176;50.844;4.412;2023-07-29T07:12:42;8.02;;;1.40;;
27794;SDS011;15176;50.844;4.412;2023-07-29T07:15:08;3.83;;;1.13;;
27794;SDS011;15176;50.844;4.412;2023-07-29T07:17:34;5.68;;;1.20;;
27794;SDS011;15176;50.844;4.412;2023-07-29T07:20:00;3.10;;;1.20;;
27794;SDS011;15176;50.844;4.412;2023-07-29T07:22:25;4.63;;;1.13;;
27794;SDS011;15176;50.844;4.412;2023-07-29T07:24:51;5.32;;;1.52;;
27794;SDS011;15176;50.844;4.412;2023-07-29T07:27:17;3.17;;;1.20;;
27794;SDS011;15176;50.844;4.412;2023-07-29T07:29:43;3.33;;;1.10;;
27794;SDS011;15176;50.844;4.412;2023-07-29T07:32:08;3.17;;;1.20;;
27794;SDS011;15176;50.844;4.412;2023-07-29T07:34:35;4.38;;;1.30;;
27794;SDS011;15176;50.844;4.412;2023-07-29T07:37:01;3.42;;;1.10;;
27794;SDS011;15176;50.844;4.412;2023-07-29T07:39:28;2.60;;;0.95;;
27794;SDS011;15176;50.844;4.412;2023-07-29T07:41:54;3.47;;;1.20;;
27794;SDS011;15176;50.844;4.412;2023-07-29T07:44:20;3.05;;;1.20;;
27794;SDS011;15176;50.844;4.412;2023-07-29T07:46:46;5.20;;;1.13;;
27794;SDS011;15176;50.844;4.412;2023-07-29T07:49:11;3.13;;;1.33;;
27794;SDS011;15176;50.844;4.412;2023-07-29T07:51:38;4.80;;;1.20;;
27794;SDS011;15176;50.844;4.412;2023-07-29T07:54:04;3.80;;;1.17;;
27794;SDS011;15176;50.844;4.412;2023-07-29T07:56:29;3.38;;;1.25;;
27794;SDS011;15176;50.844;4.412;2023-07-29T07:58:55;4.85;;;1.20;;
27794;SDS011;15176;50.844;4.412;2023-07-29T08:01:21;2.72;;;1.30;;
27794;SDS011;15176;50.844;4.412;2023-07-29T08:03:47;5.82;;;1.13;;
27794;SDS011;15176;50.844;4.412;2023-07-29T08:06:13;6.72;;;1.67;;
27794;SDS011;15176;50.844;4.412;2023-07-29T08:08:38;2.58;;;0.98;;
27794;SDS011;15176;50.844;4.412;2023-07-29T08:11:04;6.32;;;1.33;;
27794;SDS011;15176;50.844;4.412;2023-07-29T08:13:30;5.82;;;1.10;;
27794;SDS011;15176;50.844;4.412;2023-07-29T08:15:56;2.75;;;1.20;;
27794;SDS011;15176;50.844;4.412;2023-07-29T08:18:21;2.90;;;1.30;;
27794;SDS011;15176;50.844;4.412;2023-07-29T08:20:57;4.68;;;1.30;;
27794;SDS011;15176;50.844;4.412;2023-07-29T08:23:29;3.88;;;1.27;;
27794;SDS011;15176;50.844;4.412;2023-07-29T08:25:57;2.65;;;1.10;;
27794;SDS011;15176;50.844;4.412;2023-07-29T08:31:12;3.30;;;1.08;;
27794;SDS011;15176;50.844;4.412;2023-07-29T08:33:38;4.85;;;1.20;;
27794;SDS011;15176;50.844;4.412;2023-07-29T08:36:04;2.55;;;1.30;;
27794;SDS011;15176;50.844;4.412;2023-07-29T08:38:30;4.75;;;1.13;;
27794;SDS011;15176;50.844;4.412;2023-07-29T08:41:10;4.25;;;1.00;;
27794;SDS011;15176;50.844;4.412;2023-07-29T08:43:44;4.18;;;1.10;;
27794;SDS011;15176;50.844;4.412;2023-07-29T08:46:18;3.40;;;1.20;;
27794;SDS011;15176;50.844;4.412;2023-07-29T08:48:47;4.75;;;1.40;;
27794;SDS011;15176;50.844;4.412;2023-07-29T08:51:13;3.50;;;1.00;;
27794;SDS011;15176;50.844;4.412;2023-07-29T08:53:40;2.30;;;1.10;;
27794;SDS011;15176;50.844;4.412;2023-07-29T08:56:06;2.50;;;1.08;;
27794;SDS011;15176;50.844;4.412;2023-07-29T08:58:33;3.70;;;1.20;;
27794;SDS011;15176;50.844;4.412;2023-07-29T09:01:00;2.70;;;1.02;;
27794;SDS011;15176;50.844;4.412;2023-07-29T09:03:25;3.35;;;0.90;;
27794;SDS011;15176;50.844;4.412;2023-07-29T09:05:52;2.53;;;1.20;;
27794;SDS011;15176;50.844;4.412;2023-07-29T09:08:18;2.42;;;1.00;;
27794;SDS011;15176;50.844;4.412;2023-07-29T09:10:44;2.95;;;1.20;;
27794;SDS011;15176;50.844;4.412;2023-07-29T09:13:10;3.78;;;1.30;;
27794;SDS011;15176;50.844;4.412;2023-07-29T09:15:36;6.55;;;1.60;;
27794;SDS011;15176;50.844;4.412;2023-07-29T09:18:09;4.55;;;1.25;;
27794;SDS011;15176;50.844;4.412;2023-07-29T09:20:36;4.72;;;1.33;;
27794;SDS011;15176;50.844;4.412;2023-07-29T09:23:02;3.20;;;1.40;;
27794;SDS011;15176;50.844;4.412;2023-07-29T09:25:29;4.28;;;1.42;;
27794;SDS011;15176;50.844;4.412;2023-07-29T09:27:59;7.13;;;1.52;;
27794;SDS011;15176;50.844;4.412;2023-07-29T09:30:27;3.70;;;1.40;;
27794;SDS011;15176;50.844;4.412;2023-07-29T09:32:56;5.28;;;1.50;;
27794;SDS011;15176;50.844;4.412;2023-07-29T09:35:23;4.20;;;1.00;;
27794;SDS011;15176;50.844;4.412;2023-07-29T09:37:51;3.15;;;1.27;;
27794;SDS011;15176;50.844;4.412;2023-07-29T09:40:17;3.15;;;1.48;;
27794;SDS011;15176;50.844;4.412;2023-07-29T09:45:29;4.72;;;1.40;;
27794;SDS011;15176;50.844;4.412;2023-07-29T09:47:56;3.22;;;1.40;;
27794;SDS011;15176;50.844;4.412;2023-07-29T09:50:24;3.17;;;1.20;;
27794;SDS011;15176;50.844;4.412;2023-07-29T09:52:51;3.50;;;1.40;;
27794;SDS011;15176;50.844;4.412;2023-07-29T09:55:18;4.07;;;1.38;;
27794;SDS011;15176;50.844;4.412;2023-07-29T09:57:45;3.42;;;1.30;;
27794;SDS011;15176;50.844;4.412;2023-07-29T10:00:11;3.80;;;1.60;;
27794;SDS011;15176;50.844;4.412;2023-07-29T10:02:39;2.90;;;1.50;;
27794;SDS011;15176;50.844;4.412;2023-07-29T10:05:06;4.68;;;1.60;;
27794;SDS011;15176;50.844;4.412;2023-07-29T10:07:33;4.45;;;1.30;;
27794;SDS011;15176;50.844;4.412;2023-07-29T10:10:03;3.03;;;1.20;;
27794;SDS011;15176;50.844;4.412;2023-07-29T10:12:30;3.75;;;1.35;;
27794;SDS011;15176;50.844;4.412;2023-07-29T10:15:00;2.58;;;1.25;;
27794;SDS011;15176;50.844;4.412;2023-07-29T10:17:33;3.38;;;1.20;;
27794;SDS011;15176;50.844;4.412;2023-07-29T10:20:01;5.45;;;1.20;;
27794;SDS011;15176;50.844;4.412;2023-07-29T10:22:29;3.47;;;1.40;;
27794;SDS011;15176;50.844;4.412;2023-07-29T10:25:02;3.42;;;1.33;;
27794;SDS011;15176;50.844;4.412;2023-07-29T10:27:32;4.97;;;1.27;;
27794;SDS011;15176;50.844;4.412;2023-07-29T10:30:03;3.90;;;1.60;;
27794;SDS011;15176;50.844;4.412;2023-07-29T10:32:29;3.33;;;1.40;;
27794;SDS011;15176;50.844;4.412;2023-07-29T10:34:56;5.30;;;1.48;;
27794;SDS011;15176;50.844;4.412;2023-07-29T10:37:22;6.80;;;1.60;;
27794;SDS011;15176;50.844;4.412;2023-07-29T10:39:54;5.22;;;1.80;;
27794;SDS011;15176;50.844;4.412;2023-07-29T10:42:20;3.65;;;1.60;;
27794;SDS011;15176;50.844;4.412;2023-07-29T10:44:46;4.38;;;2.10;;
27794;SDS011;15176;50.844;4.412;2023-07-29T10:47:27;4.18;;;1.77;;
27794;SDS011;15176;50.844;4.412;2023-07-29T10:49:57;5.03;;;1.80;;
27794;SDS011;15176;50.844;4.412;2023-07-29T10:52:30;3.38;;;1.60;;
27794;SDS011;15176;50.844;4.412;2023-07-29T10:54:59;4.13;;;1.70;;
27794;SDS011;15176;50.844;4.412;2023-07-29T10:57:39;3.58;;;1.88;;
27794;SDS011;15176;50.844;4.412;2023-07-29T11:00:07;7.22;;;1.80;;
27794;SDS011;15176;50.844;4.412;2023-07-29T11:02:37;9.23;;;2.35;;
27794;SDS011;15176;50.844;4.412;2023-07-29T11:05:07;3.97;;;2.03;;
27794;SDS011;15176;50.844;4.412;2023-07-29T11:07:44;5.93;;;2.50;;
27794;SDS011;15176;50.844;4.412;2023-07-29T11:10:12;5.68;;;2.22;;
27794;SDS011;15176;50.844;4.412;2023-07-29T11:17:47;3.67;;;2.20;;
27794;SDS011;15176;50.844;4.412;2023-07-29T11:20:18;4.68;;;2.60;;
27794;SDS011;15176;50.844;4.412;2023-07-29T11:22:47;4.50;;;2.30;;
27794;SDS011;15176;50.844;4.412;2023-07-29T11:25:14;4.18;;;2.22;;
27794;SDS011;15176;50.844;4.412;2023-07-29T11:27:41;5.13;;;1.98;;
27794;SDS011;15176;50.844;4.412;2023-07-29T11:30:11;4.07;;;1.98;;
27794;SDS011;15176;50.844;4.412;2023-07-29T11:32:39;4.38;;;1.92;;
27794;SDS011;15176;50.844;4.412;2023-07-29T11:35:13;5.53;;;2.45;;
27794;SDS011;15176;50.844;4.412;2023-07-29T11:37:46;4.45;;;1.60;;
27794;SDS011;15176;50.844;4.412;2023-07-29T11:40:14;7.70;;;1.65;;
27794;SDS011;15176;50.844;4.412;2023-07-29T11:42:40;3.53;;;1.70;;
27794;SDS011;15176;50.844;4.412;2023-07-29T11:45:07;3.65;;;1.90;;
27794;SDS011;15176;50.844;4.412;2023-07-29T11:47:34;3.17;;;1.60;;
27794;SDS011;15176;50.844;4.412;2023-07-29T11:50:10;2.88;;;1.75;;
27794;SDS011;15176;50.844;4.412;2023-07-29T11:52:39;2.70;;;1.60;;
27794;SDS011;15176;50.844;4.412;2023-07-29T11:55:09;4.45;;;1.80;;
27794;SDS011;15176;50.844;4.412;2023-07-29T11:57:37;3.45;;;1.90;;
27794;SDS011;15176;50.844;4.412;2023-07-29T12:00:06;3.38;;;1.60;;
27794;SDS011;15176;50.844;4.412;2023-07-29T12:02:36;2.22;;;1.35;;
27794;SDS011;15176;50.844;4.412;2023-07-29T12:05:03;5.50;;;1.77;;
27794;SDS011;15176;50.844;4.412;2023-07-29T12:07:30;3.90;;;1.58;;
27794;SDS011;15176;50.844;4.412;2023-07-29T12:09:56;4.18;;;1.90;;
27794;SDS011;15176;50.844;4.412;2023-07-29T12:12:22;5.63;;;2.10;;
27794;SDS011;15176;50.844;4.412;2023-07-29T12:14:51;5.68;;;2.00;;
27794;SDS011;15176;50.844;4.412;2023-07-29T12:17:19;4.68;;;2.08;;
27794;SDS011;15176;50.844;4.412;2023-07-29T12:19:44;4.10;;;1.90;;
27794;SDS011;15176;50.844;4.412;2023-07-29T12:22:10;5.55;;;2.38;;
27794;SDS011;15176;50.844;4.412;2023-07-29T12:24:40;4.53;;;2.30;;
27794;SDS011;15176;50.844;4.412;2023-07-29T12:27:09;4.20;;;2.38;;
27794;SDS011;15176;50.844;4.412;2023-07-29T12:29:42;4.18;;;2.15;;
27794;SDS011;15176;50.844;4.412;2023-07-29T12:32:09;5.60;;;1.95;;
27794;SDS011;15176;50.844;4.412;2023-07-29T12:34:36;4.65;;;2.10;;
27794;SDS011;15176;50.844;4.412;2023-07-29T12:37:04;5.05;;;2.20;;
27794;SDS011;15176;50.844;4.412;2023-07-29T12:39:31;5.25;;;2.22;;
27794;SDS011;15176;50.844;4.412;2023-07-29T12:41:59;4.35;;;2.20;;
27794;SDS011;15176;50.844;4.412;2023-07-29T12:44:26;3.92;;;2.33;;
27794;SDS011;15176;50.844;4.412;2023-07-29T12:46:56;3.42;;;2.00;;
27794;SDS011;15176;50.844;4.412;2023-07-29T12:49:22;4.00;;;1.90;;
27794;SDS011;15176;50.844;4.412;2023-07-29T12:51:47;2.92;;;1.70;;
27794;SDS011;15176;50.844;4.412;2023-07-29T12:54:13;3.63;;;1.85;;
27794;SDS011;15176;50.844;4.412;2023-07-29T12:56:39;4.50;;;2.20;;
27794;SDS011;15176;50.844;4.412;2023-07-29T12:59:05;3.50;;;2.00;;
27794;SDS011;15176;50.844;4.412;2023-07-29T13:01:31;5.00;;;1.85;;
27794;SDS011;15176;50.844;4.412;2023-07-29T13:03:57;3.70;;;2.10;;
27794;SDS011;15176;50.844;4.412;2023-07-29T13:06:23;3.80;;;1.85;;
27794;SDS011;15176;50.844;4.412;2023-07-29T13:08:48;5.68;;;2.00;;
27794;SDS011;15176;50.844;4.412;2023-07-29T13:11:14;4.63;;;1.70;;
27794;SDS011;15176;50.844;4.412;2023-07-29T13:13:41;2.72;;;1.73;;
27794;SDS011;15176;50.844;4.412;2023-07-29T13:16:08;3.67;;;1.63;;
27794;SDS011;15176;50.844;4.412;2023-07-29T13:18:33;3.60;;;1.52;;
27794;SDS011;15176;50.844;4.412;2023-07-29T13:21:00;3.33;;;1.65;;
27794;SDS011;15176;50.844;4.412;2023-07-29T13:23:26;6.53;;;2.08;;
27794;SDS011;15176;50.844;4.412;2023-07-29T13:25:52;3.08;;;1.55;;
27794;SDS011;15176;50.844;4.412;2023-07-29T13:28:18;3.85;;;1.48;;
27794;SDS011;15176;50.844;4.412;2023-07-29T13:30:44;2.75;;;1.70;;
27794;SDS011;15176;50.844;4.412;2023-07-29T13:33:11;2.75;;;1.65;;
27794;SDS011;15176;50.844;4.412;2023-07-29T13:35:37;4.63;;;1.95;;
27794;SDS011;15176;50.844;4.412;2023-07-29T13:38:03;4.72;;;1.70;;
27794;SDS011;15176;50.844;4.412;2023-07-29T13:40:29;4.75;;;1.90;;
27794;SDS011;15176;50.844;4.412;2023-07-29T13:42:55;2.88;;;1.60;;
27794;SDS011;15176;50.844;4.412;2023-07-29T13:45:20;4.20;;;1.60;;
27794;SDS011;15176;50.844;4.412;2023-07-29T13:47:47;2.88;;;1.50;;
27794;SDS011;15176;50.844;4.412;2023-07-29T13:50:13;5.35;;;1.65;;
27794;SDS011;15176;50.844;4.412;2023-07-29T13:52:40;2.75;;;1.60;;
27794;SDS011;15176;50.844;4.412;2023-07-29T13:55:05;2.67;;;1.25;;
27794;SDS011;15176;50.844;4.412;2023-07-29T13:57:32;3.78;;;1.20;;
27794;SDS011;15176;50.844;4.412;2023-07-29T13:59:57;2.25;;;1.40;;
27794;SDS011;15176;50.844;4.412;2023-07-29T14:02:23;2.03;;;1.10;;
27794;SDS011;15176;50.844;4.412;2023-07-29T14:04:51;3.03;;;1.20;;
27794;SDS011;15176;50.844;4.412;2023-07-29T14:07:17;3.53;;;1.23;;
27794;SDS011;15176;50.844;4.412;2023-07-29T14:09:42;2.05;;;1.10;;
27794;SDS011;15176;50.844;4.412;2023-07-29T14:12:08;2.70;;;1.30;;
27794;SDS011;15176;50.844;4.412;2023-07-29T14:14:37;2.55;;;1.10;;
27794;SDS011;15176;50.844;4.412;2023-07-29T14:17:03;2.88;;;1.33;;
27794;SDS011;15176;50.844;4.412;2023-07-29T14:19:29;4.28;;;1.25;;
27794;SDS011;15176;50.844;4.412;2023-07-29T14:21:56;2.65;;;1.10;;
27794;SDS011;15176;50.844;4.412;2023-07-29T14:24:21;2.30;;;1.35;;
27794;SDS011;15176;50.844;4.412;2023-07-29T14:26:47;3.47;;;1.20;;
27794;SDS011;15176;50.844;4.412;2023-07-29T14:29:13;2.85;;;1.30;;
27794;SDS011;15176;50.844;4.412;2023-07-29T14:31:39;2.33;;;1.05;;
27794;SDS011;15176;50.844;4.412;2023-07-29T14:34:04;1.80;;;0.98;;
27794;SDS011;15176;50.844;4.412;2023-07-29T14:36:30;2.03;;;1.05;;
27794;SDS011;15176;50.844;4.412;2023-07-29T14:38:56;2.22;;;0.98;;
27794;SDS011;15176;50.844;4.412;2023-07-29T14:41:22;2.42;;;1.10;;
27794;SDS011;15176;50.844;4.412;2023-07-29T14:43:47;2.22;;;1.00;;
27794;SDS011;15176;50.844;4.412;2023-07-29T14:46:13;1.88;;;0.98;;
27794;SDS011;15176;50.844;4.412;2023-07-29T14:48:39;3.47;;;1.10;;
27794;SDS011;15176;50.844;4.412;2023-07-29T14:51:04;2.03;;;1.10;;
27794;SDS011;15176;50.844;4.412;2023-07-29T14:53:30;3.17;;;0.90;;
27794;SDS011;15176;50.844;4.412;2023-07-29T14:55:56;2.97;;;1.30;;
27794;SDS011;15176;50.844;4.412;2023-07-29T14:58:22;3.47;;;1.30;;
27794;SDS011;15176;50.844;4.412;2023-07-29T15:00:50;2.58;;;1.30;;
27794;SDS011;15176;50.844;4.412;2023-07-29T15:03:19;3.72;;;1.45;;
27794;SDS011;15176;50.844;4.412;2023-07-29T15:05:45;3.08;;;1.33;;
27794;SDS011;15176;50.844;4.412;2023-07-29T15:08:10;2.17;;;1.15;;